Hlavní strana
METAR-TAF:

METAR-TAF

Letiště :

Skellefteå, Švédsko

zeměpisná šířka: 64-38N, zeměpisná délka: 021-05E, výška: 49 m

Aktuální stav počasí

Zpráva byla vytvořena před 21 minutami, v 22:20 UTC
Bezvětří
Teplota -8°C
Vlhkost vzduchu 92%
Tlak 1005 hPa
Viditelnost 10 km a více

METAR: ESNS 252220Z AUTO 00000KT 9999 NCD M08/M09 Q1005

Čas: 23:41 (22:41 UTC)

Předpověď počasí

Zpráva byla vytvořena před 2 hodinami a 11 minutami, v 20:30 UTC
Předpověď platná od 25 v 21 UTC do 25 v 23 UTC
Západní vítr 4 kt
Viditelnost 10 km a více
Žádná oblačnost pod 1500 m, nevyskytují se cumulonimby.

TAF: ESNS 252030Z 2521/2523 28004KT CAVOK

Stav a předpovědi počasí z více než 4 000 letišť (zprávy METAR a TAF).

Červené a žluté tečky na mapě představují dostupné meteorologické stanice.

Když kurzor umístíte na tečku, zobrazí se název stanice.

Pak kliknutím zobrazíte stav a předpověď počasí.

Chcete-li změnit mapu, kliknutím na zelené tlačítko se znaménkem +mapu přiblížíte, kliknutím na zelené tlačítko se znaménkem – mapu oddálíte a kliknutím na zelené šipky přejdete na sousední mapy.


METAR-TAF: